Terminal Aerodrome Forecast
Issued by NWS St Louis, MO

Home | Current Version | Previous Version | Text Only | Print | Product List | Glossary On
Versions: 1 2 3 4 5 6 7 8 9 10 11 12 13 14
077
FTUS43 KLSX 101129
TAFCOU
TAF
KCOU 101129Z 1012/1112 12004KT P6SM OVC060
     FM101700 15008KT P6SM OVC045
     FM110600 16012KT P6SM OVC045 WS014/23040KT=

USA.gov is the U.S. government's official web portal to all federal, state and local government web resources and services.